»·PEaware :: N32196 KRDD-KACV

N32196 :: KRDD-KACV

FLIGHT INFORMATION

Flight Status: Arrived
Operator: Privately registered:
United States
More flights under this callsign
Pilot: Gary H. (18965)
Aircraft: PIPER PA-28R-201 ARROW
(P28R)
More flights by this aircraft type
Origin: KRDD Redding Mun
United States
Destination: KACV Arcata
United States
More flights between these airports :: More routes between these airports
Route: +KENDL3 KENDL YAGER
File this flight plan on PilotEdge
Remarks:
Altitude:
(Current/Filed)
8,000ft
Speed:
(Current/Filed)
120kts
Departed: 29-Sep-20 03:55 PM
Arrived: 29-Sep-20 04:47 PM
Distance/Time
Traveled:
87nm/0:52
Distance/Time
To Go:
Arrived

Flight Plot

Page will automatically refresh every two minutes.

Flight plan parsing failed; only flown route is shown


Map Options




Map Legend


Flown Route
Filed Route
Departure Airport
Arrival Airport
Navaid (VOR, NDB)
Fix

Horizontal Profiles

Position Reports

Time Latitude Longitude Heading Altitude Ground
Speed
29-Sep-20 15:33 40.519845 -122.291446 359 499ft 0kts
29-Sep-20 15:34 40.519845 -122.291446 359 499ft 0kts
29-Sep-20 15:35 40.519845 -122.291446 359 499ft 0kts
29-Sep-20 15:36 40.519845 -122.291446 359 499ft 0kts
29-Sep-20 15:37 40.519845 -122.291446 359 499ft 0kts
29-Sep-20 15:38 40.519845 -122.291446 359 499ft 0kts
29-Sep-20 15:39 40.519845 -122.291446 359 499ft 0kts
29-Sep-20 15:40 40.519845 -122.291446 359 499ft 0kts
29-Sep-20 15:41 40.519845 -122.291446 359 499ft 0kts
29-Sep-20 15:42 40.519845 -122.291446 359 499ft 0kts
29-Sep-20 15:43 40.519845 -122.291446 359 499ft 0kts
29-Sep-20 15:44 40.519845 -122.291446 359 499ft 0kts
29-Sep-20 15:45 40.519845 -122.291446 359 499ft 0kts
29-Sep-20 15:46 40.519847 -122.291446 359 499ft 0kts
29-Sep-20 15:47 40.519949 -122.291740 266 499ft 0kts
29-Sep-20 15:48 40.519949 -122.291740 266 499ft 0kts
29-Sep-20 15:49 40.520141 -122.293566 277 499ft 0kts
29-Sep-20 15:50 40.520141 -122.293566 277 499ft 0kts
29-Sep-20 15:51 40.520216 -122.293802 286 500ft 0kts
29-Sep-20 15:52 40.520216 -122.293802 286 500ft 0kts
29-Sep-20 15:53 40.520218 -122.293811 286 500ft 0kts
29-Sep-20 15:54 40.519151 -122.294866 177 502ft 43kts
29-Sep-20 15:55 40.497507 -122.300066 234 1264ft 102kts
29-Sep-20 15:56 40.495468 -122.337381 227 2198ft 103kts
29-Sep-20 15:57 40.474560 -122.362603 217 3045ft 98kts
29-Sep-20 15:58 40.456478 -122.387950 265 3948ft 99kts
29-Sep-20 15:59 40.459625 -122.424625 271 4829ft 101kts
29-Sep-20 16:00 40.462625 -122.461607 271 5650ft 102kts
29-Sep-20 16:01 40.465522 -122.498543 271 6403ft 102kts
29-Sep-20 16:02 40.468313 -122.535797 271 7098ft 102kts
29-Sep-20 16:03 40.470969 -122.573185 271 7901ft 102kts
29-Sep-20 16:04 40.473439 -122.610620 271 8663ft 103kts
29-Sep-20 16:05 40.476009 -122.648116 273 9366ft 103kts
29-Sep-20 16:06 40.479078 -122.686088 272 9978ft 109kts
29-Sep-20 16:07 40.482112 -122.728923 272 10047ft 123kts
29-Sep-20 16:08 40.485182 -122.774106 273 10047ft 124kts
29-Sep-20 16:09 40.488844 -122.819140 273 10049ft 124kts
29-Sep-20 16:10 40.492509 -122.864231 273 10048ft 124kts
29-Sep-20 16:11 40.496238 -122.909419 273 10039ft 124kts
29-Sep-20 16:12 40.500087 -122.954886 272 10023ft 125kts
29-Sep-20 16:13 40.503874 -123.000944 272 10012ft 127kts
29-Sep-20 16:14 40.507409 -123.047450 272 10003ft 128kts
29-Sep-20 16:15 40.511094 -123.095457 272 9953ft 136kts
29-Sep-20 16:16 40.514769 -123.144431 272 10019ft 135kts
29-Sep-20 16:17 40.518095 -123.190804 272 10011ft 139kts
29-Sep-20 16:18 40.521535 -123.241765 272 9943ft 140kts
29-Sep-20 16:19 40.524833 -123.292706 272 9980ft 138kts
29-Sep-20 16:20 40.528164 -123.342877 271 10002ft 129kts
29-Sep-20 16:21 40.532363 -123.391412 272 9960ft 134kts
29-Sep-20 16:22 40.536564 -123.440180 272 9958ft 134kts
29-Sep-20 16:23 40.540756 -123.488979 272 9970ft 134kts
29-Sep-20 16:24 40.544939 -123.537837 272 9978ft 132kts
29-Sep-20 16:25 40.547877 -123.588178 269 9386ft 138kts
29-Sep-20 16:26 40.549955 -123.638465 269 8854ft 136kts
29-Sep-20 16:27 40.551981 -123.688051 268 8367ft 134kts
29-Sep-20 16:28 40.553924 -123.736923 268 7916ft 133kts
29-Sep-20 16:29 40.555782 -123.784856 268 7602ft 127kts
29-Sep-20 16:30 40.565820 -123.826649 327 7598ft 131kts
29-Sep-20 16:31 40.599033 -123.848844 329 7202ft 134kts
29-Sep-20 16:32 40.632595 -123.870944 329 6780ft 134kts
29-Sep-20 16:33 40.665407 -123.893693 327 6319ft 131kts
29-Sep-20 16:34 40.697219 -123.916966 325 5845ft 131kts
29-Sep-20 16:35 40.729993 -123.939776 331 5206ft 134kts
29-Sep-20 16:36 40.763870 -123.960911 330 4442ft 135kts
29-Sep-20 16:37 40.793864 -123.981629 329 3714ft 132kts
29-Sep-20 16:38 40.821336 -123.999811 328 3414ft 125kts
29-Sep-20 16:39 40.844176 -124.016100 328 2975ft 87kts
29-Sep-20 16:40 40.862867 -124.029174 330 2670ft 86kts
29-Sep-20 16:41 40.873193 -124.036956 323 2436ft 88kts
29-Sep-20 16:42 40.895157 -124.052120 330 1907ft 89kts
29-Sep-20 16:43 40.916813 -124.066854 332 1474ft 87kts
29-Sep-20 16:44 40.938537 -124.081265 329 999ft 87kts
29-Sep-20 16:45 40.959461 -124.095460 333 512ft 86kts
29-Sep-20 16:46 40.975723 -124.106657 333 225ft 34kts
29-Sep-20 16:47 40.976287 -124.108494 181 225ft 0kts
29-Sep-20 16:48 40.915239 -124.065850 332 1504ft 87kts
29-Sep-20 16:49 40.936898 -124.080062 330 1048ft 87kts
29-Sep-20 16:50 40.958181 -124.094637 332 541ft 85kts
29-Sep-20 16:51 40.975199 -124.106287 332 225ft 38kts
29-Sep-20 16:52 40.966412 -124.100372 331 364ft 73kts
29-Sep-20 16:53 40.976982 -124.108280 208 225ft 7kts

Navigation Log

Ident Type
Flight plan parsing failed, navigation log unavailable